createdAt,value
2023-01-18T00:01:17.249Z,0.57
2023-01-18T00:03:43.808Z,0.41
2023-01-18T00:06:10.941Z,0.13
2023-01-18T00:08:38.853Z,0.32
2023-01-18T00:11:14.150Z,0.27
2023-01-18T00:13:40.723Z,0.52
2023-01-18T00:16:10.795Z,0.52
2023-01-18T00:18:37.726Z,0.58
2023-01-18T00:21:07.373Z,0.54
2023-01-18T00:23:34.308Z,0.39
2023-01-18T00:26:02.204Z,0.00
2023-01-18T00:28:29.148Z,0.24
2023-01-18T00:30:55.745Z,0.25
2023-01-18T00:33:22.551Z,0.35
2023-01-18T00:35:58.590Z,0.24
2023-01-18T00:38:25.731Z,-0.04
2023-01-18T00:40:52.322Z,-0.10
2023-01-18T00:43:37.770Z,-0.25
2023-01-18T00:46:12.313Z,-0.49
2023-01-18T00:48:39.936Z,-0.31
2023-01-18T00:51:09.935Z,-0.17
2023-01-18T00:53:38.087Z,-0.29
2023-01-18T00:56:09.091Z,0.08
2023-01-18T00:58:37.342Z,0.25
2023-01-18T01:01:05.220Z,-0.05
2023-01-18T01:03:55.188Z,-0.19
2023-01-18T01:06:46.363Z,-0.40
2023-01-18T01:09:19.211Z,-0.49
2023-01-18T01:12:04.840Z,-0.44
2023-01-18T01:14:51.020Z,-0.51
2023-01-18T01:17:36.597Z,-0.31
2023-01-18T01:20:21.941Z,-0.38
2023-01-18T01:23:06.748Z,-0.40
2023-01-18T01:25:51.563Z,-0.18
2023-01-18T01:28:18.074Z,-0.22
2023-01-18T01:30:45.388Z,-0.15
2023-01-18T01:33:12.071Z,0.24
2023-01-18T01:35:38.576Z,0.22
2023-01-18T01:38:05.211Z,0.16
2023-01-18T01:40:31.786Z,0.05
2023-01-18T01:42:58.782Z,0.08
2023-01-18T01:45:27.456Z,-0.21
2023-01-18T01:47:55.274Z,-0.44
2023-01-18T01:50:31.602Z,-0.55
2023-01-18T01:52:58.555Z,-0.74
2023-01-18T01:55:40.374Z,-0.87
2023-01-18T01:58:11.475Z,-0.96
2023-01-18T02:00:38.031Z,-0.93
2023-01-18T02:03:07.699Z,-0.45
2023-01-18T02:05:37.439Z,-0.43
2023-01-18T02:08:04.414Z,-0.77
2023-01-18T02:10:31.238Z,-0.63
2023-01-18T02:12:59.061Z,-0.83
2023-01-18T02:15:33.204Z,-0.82
2023-01-18T02:18:10.517Z,-0.86
2023-01-18T02:20:43.095Z,-0.91
2023-01-18T02:23:15.967Z,-0.92
2023-01-18T02:26:10.396Z,-0.94
2023-01-18T02:28:37.726Z,-0.87
2023-01-18T02:31:22.977Z,-1.04
2023-01-18T02:34:03.943Z,-1.15
2023-01-18T02:36:51.977Z,-1.27
2023-01-18T02:39:42.364Z,-1.24
2023-01-18T02:42:37.805Z,-1.17
2023-01-18T02:45:28.697Z,-1.17
2023-01-18T02:47:55.528Z,-1.08
2023-01-18T02:50:25.738Z,-1.03
2023-01-18T02:52:53.632Z,-1.07
2023-01-18T02:55:36.076Z,-1.09
2023-01-18T02:58:28.023Z,-1.02
2023-01-18T03:01:04.856Z,-1.09
2023-01-18T03:03:32.200Z,-1.27
2023-01-18T03:06:03.940Z,-1.40
2023-01-18T03:08:30.399Z,-1.51
2023-01-18T03:10:56.944Z,-1.29
2023-01-18T03:13:37.446Z,-0.90
2023-01-18T03:16:18.423Z,-1.16
2023-01-18T03:19:25.241Z,-1.11
2023-01-18T03:21:53.214Z,-0.90
2023-01-18T03:24:20.332Z,-1.17
2023-01-18T03:26:51.370Z,-1.27
2023-01-18T03:29:37.672Z,-1.32
2023-01-18T03:32:29.463Z,-1.28
2023-01-18T03:35:14.659Z,-1.29
2023-01-18T03:37:44.162Z,-1.28
2023-01-18T03:40:15.766Z,-1.05
2023-01-18T03:43:06.006Z,-1.22
2023-01-18T03:46:05.140Z,-1.29
2023-01-18T03:48:32.559Z,-1.36
2023-01-18T03:51:23.055Z,-1.28
2023-01-18T03:54:11.128Z,-1.23
2023-01-18T03:56:44.735Z,-1.07
2023-01-18T03:59:11.272Z,-0.74
2023-01-18T04:01:37.928Z,-0.59
2023-01-18T04:04:05.924Z,-0.75
2023-01-18T04:06:33.073Z,-0.92
2023-01-18T04:08:59.642Z,-0.96
2023-01-18T04:11:26.206Z,-0.89
2023-01-18T04:13:54.512Z,-1.05
2023-01-18T04:16:21.557Z,-0.88
2023-01-18T04:18:48.271Z,-0.62
2023-01-18T04:21:14.783Z,-0.68
2023-01-18T04:23:41.381Z,-0.88
2023-01-18T04:26:07.920Z,-0.54
2023-01-18T04:28:34.673Z,-0.68
2023-01-18T04:31:01.373Z,-0.45
2023-01-18T04:33:28.126Z,-0.71
2023-01-18T04:35:54.694Z,-0.89
2023-01-18T04:38:21.926Z,-0.77
2023-01-18T04:40:48.837Z,-0.65
2023-01-18T04:43:15.430Z,-0.88
2023-01-18T04:45:41.952Z,-0.99
2023-01-18T04:48:08.564Z,-0.81
2023-01-18T04:50:35.150Z,-0.86
2023-01-18T04:53:02.154Z,-0.88
2023-01-18T04:55:28.826Z,-0.93
2023-01-18T04:57:59.213Z,-0.94
2023-01-18T05:00:25.783Z,-0.95
2023-01-18T05:02:53.491Z,-0.99
2023-01-18T05:05:20.040Z,-1.04
2023-01-18T05:07:46.546Z,-1.07
2023-01-18T05:10:13.360Z,-1.17
2023-01-18T05:12:39.953Z,-1.23
2023-01-18T05:15:07.625Z,-1.14
2023-01-18T05:17:35.189Z,-0.95
2023-01-18T05:20:03.124Z,-1.11
2023-01-18T05:22:30.067Z,-1.11
2023-01-18T05:24:56.992Z,-1.12
2023-01-18T05:27:23.641Z,-1.10
2023-01-18T05:29:51.441Z,-1.08
2023-01-18T05:32:18.234Z,-1.06
2023-01-18T05:34:45.989Z,-0.95
2023-01-18T05:37:12.517Z,-0.95
2023-01-18T05:39:39.185Z,-0.98
2023-01-18T05:42:06.281Z,-0.67
2023-01-18T05:44:32.958Z,-0.53
2023-01-18T05:47:01.489Z,-0.69
2023-01-18T05:49:29.899Z,-0.72
2023-01-18T05:51:56.441Z,-0.31
2023-01-18T05:54:23.620Z,-0.56
2023-01-18T05:56:50.180Z,-0.87
2023-01-18T05:59:17.860Z,-1.02
2023-01-18T06:01:44.561Z,-1.04
2023-01-18T06:04:11.191Z,-1.00
2023-01-18T06:06:39.133Z,-1.08
2023-01-18T06:09:06.579Z,-1.03
2023-01-18T06:11:33.155Z,-1.03
2023-01-18T06:13:59.836Z,-1.32
2023-01-18T06:16:26.629Z,-1.19
2023-01-18T06:18:53.287Z,-1.11
2023-01-18T06:21:19.872Z,-0.91
2023-01-18T06:23:46.454Z,-0.76
2023-01-18T06:26:13.571Z,-0.97
2023-01-18T06:28:42.209Z,-0.91
2023-01-18T06:31:08.865Z,-0.85
2023-01-18T06:33:35.428Z,-0.82
2023-01-18T06:36:02.286Z,-0.91
2023-01-18T06:38:29.773Z,-0.75
2023-01-18T06:40:56.503Z,-0.63
2023-01-18T06:43:23.226Z,-0.81
2023-01-18T06:45:56.898Z,-0.81
2023-01-18T06:48:24.441Z,-0.82
2023-01-18T06:50:52.427Z,-0.75
2023-01-18T06:53:20.440Z,-0.61
2023-01-18T06:55:58.320Z,-0.79
2023-01-18T06:58:26.611Z,-0.83
2023-01-18T07:00:57.584Z,-1.07
2023-01-18T07:03:25.950Z,-1.07
2023-01-18T07:05:53.977Z,-0.97
2023-01-18T07:08:21.070Z,-1.07
2023-01-18T07:10:50.839Z,-1.06
2023-01-18T07:13:17.735Z,-1.07
2023-01-18T07:15:44.451Z,-1.06
2023-01-18T07:18:11.123Z,-1.03
2023-01-18T07:20:40.417Z,-0.97
2023-01-18T07:23:07.084Z,-1.01
2023-01-18T07:25:33.651Z,-0.99
2023-01-18T07:28:00.254Z,-0.95
2023-01-18T07:30:26.827Z,-0.89
2023-01-18T07:32:54.611Z,-0.87
2023-01-18T07:35:24.621Z,-0.95
2023-01-18T07:37:53.047Z,-1.00
2023-01-18T07:40:21.313Z,-0.98
2023-01-18T07:42:49.011Z,-0.97
2023-01-18T07:45:15.672Z,-0.62
2023-01-18T07:47:42.611Z,-0.58
2023-01-18T07:50:10.181Z,-0.33
2023-01-18T07:52:36.712Z,-0.37
2023-01-18T07:55:04.718Z,-0.04
2023-01-18T07:57:33.099Z,0.08
2023-01-18T07:59:59.603Z,0.16
2023-01-18T08:02:27.729Z,-0.02
2023-01-18T08:04:54.896Z,-0.11
2023-01-18T08:07:21.407Z,-0.12
2023-01-18T08:09:47.984Z,0.13
2023-01-18T08:12:18.295Z,0.45
2023-01-18T08:14:45.906Z,0.26
2023-01-18T08:17:12.469Z,0.34
2023-01-18T08:19:39.115Z,0.37
2023-01-18T08:22:05.684Z,0.19
2023-01-18T08:24:32.177Z,0.23
2023-01-18T08:26:58.836Z,0.17
2023-01-18T08:29:25.471Z,0.33
2023-01-18T08:31:57.520Z,0.59
2023-01-18T08:34:24.122Z,0.53
2023-01-18T08:36:51.078Z,0.67
2023-01-18T08:39:17.595Z,0.53
2023-01-18T08:41:44.894Z,0.51
2023-01-18T08:44:14.212Z,0.51
2023-01-18T08:46:40.840Z,0.46
2023-01-18T08:49:07.671Z,0.35
2023-01-18T08:51:34.263Z,0.40
2023-01-18T08:54:01.075Z,0.35
2023-01-18T08:56:28.016Z,0.02
2023-01-18T08:58:55.295Z,0.16
2023-01-18T09:01:23.610Z,0.31
2023-01-18T09:03:50.746Z,0.28
2023-01-18T09:06:17.569Z,0.63
2023-01-18T09:08:47.516Z,0.64
2023-01-18T09:11:14.705Z,0.66
2023-01-18T09:13:54.610Z,0.84
2023-01-18T09:16:25.441Z,0.89
2023-01-18T09:18:52.123Z,0.77
2023-01-18T09:21:20.235Z,0.78
2023-01-18T09:23:49.147Z,0.94
2023-01-18T09:26:21.128Z,1.06
2023-01-18T09:28:49.745Z,1.37
2023-01-18T09:31:16.427Z,1.30
2023-01-18T09:33:52.450Z,1.43
2023-01-18T09:36:21.576Z,1.48
2023-01-18T09:38:48.235Z,1.48
2023-01-18T09:41:46.979Z,1.28
2023-01-18T09:44:19.517Z,1.23
2023-01-18T09:46:52.641Z,1.21
2023-01-18T09:49:35.013Z,1.26
2023-01-18T09:52:21.896Z,1.32
2023-01-18T09:55:12.465Z,1.46
2023-01-18T09:58:19.201Z,1.50
2023-01-18T10:00:47.755Z,1.54
2023-01-18T10:03:35.844Z,1.57
2023-01-18T10:06:19.059Z,1.82
2023-01-18T10:09:07.512Z,1.88
2023-01-18T10:11:47.306Z,2.10
2023-01-18T10:14:18.303Z,2.02
2023-01-18T10:16:54.741Z,2.08
2023-01-18T10:19:26.410Z,2.13
2023-01-18T10:22:19.367Z,2.03
2023-01-18T10:25:04.935Z,2.11
2023-01-18T10:27:44.752Z,2.22
2023-01-18T10:30:18.432Z,2.22
2023-01-18T10:32:52.442Z,2.34
2023-01-18T10:35:35.621Z,2.39
2023-01-18T10:38:07.452Z,2.40
2023-01-18T10:40:34.835Z,2.35
2023-01-18T10:43:02.515Z,2.33
2023-01-18T10:45:31.107Z,2.36
2023-01-18T10:48:17.111Z,2.40
2023-01-18T10:50:53.546Z,2.40
2023-01-18T10:53:33.233Z,2.27
2023-01-18T10:56:14.275Z,2.46
2023-01-18T10:59:00.901Z,2.54
2023-01-18T11:01:31.902Z,2.48
2023-01-18T11:04:27.241Z,2.68
2023-01-18T11:06:57.796Z,2.66
2023-01-18T11:09:51.694Z,2.88
2023-01-18T11:12:44.260Z,2.73
2023-01-18T11:15:14.025Z,2.69
2023-01-18T11:17:46.652Z,2.81
2023-01-18T11:20:19.994Z,2.68
2023-01-18T11:22:54.009Z,2.69
2023-01-18T11:25:20.920Z,2.77
2023-01-18T11:27:48.951Z,2.77
2023-01-18T11:30:24.575Z,2.66
2023-01-18T11:32:52.609Z,2.76
2023-01-18T11:35:33.518Z,2.68
2023-01-18T11:38:06.082Z,2.62
2023-01-18T11:40:34.593Z,2.51
2023-01-18T11:43:14.108Z,2.51
2023-01-18T11:45:45.392Z,2.59
2023-01-18T11:48:38.044Z,2.60
2023-01-18T11:51:08.626Z,2.63
2023-01-18T11:53:56.199Z,2.66
2023-01-18T11:56:51.481Z,2.72
2023-01-18T11:59:46.239Z,2.75
2023-01-18T12:02:45.603Z,2.73
2023-01-18T12:05:15.240Z,2.80
2023-01-18T12:07:57.103Z,2.93
2023-01-18T12:10:25.704Z,2.96
2023-01-18T12:13:16.656Z,2.90
2023-01-18T12:15:48.221Z,2.94
2023-01-18T12:18:27.504Z,3.01
2023-01-18T12:21:04.878Z,2.92
2023-01-18T12:24:00.482Z,2.91
2023-01-18T12:26:36.621Z,2.94
2023-01-18T12:29:12.744Z,3.03
2023-01-18T12:32:09.519Z,2.98
2023-01-18T12:34:46.776Z,2.96
2023-01-18T12:37:39.956Z,3.01
2023-01-18T12:40:11.378Z,3.06
2023-01-18T12:42:52.050Z,3.01
2023-01-18T12:45:31.800Z,2.99
2023-01-18T12:47:58.655Z,2.96
2023-01-18T12:50:31.209Z,2.99
2023-01-18T12:53:01.631Z,3.17
2023-01-18T12:55:31.569Z,3.20
2023-01-18T12:58:00.173Z,3.12
2023-01-18T13:00:31.800Z,3.20
2023-01-18T13:02:58.886Z,3.09
2023-01-18T13:05:52.436Z,3.22
2023-01-18T13:08:24.524Z,3.21
2023-01-18T13:10:51.099Z,3.17
2023-01-18T13:13:28.300Z,3.05
2023-01-18T13:16:12.913Z,3.12
2023-01-18T13:18:55.587Z,3.15
2023-01-18T13:21:27.820Z,3.08
2023-01-18T13:24:13.041Z,3.01
2023-01-18T13:26:40.193Z,2.81
2023-01-18T13:29:06.653Z,2.89
2023-01-18T13:31:33.435Z,2.78
2023-01-18T13:34:00.122Z,2.88
2023-01-18T13:36:26.785Z,2.75
2023-01-18T13:38:56.327Z,2.62
2023-01-18T13:41:28.140Z,2.71
2023-01-18T13:44:02.623Z,2.71
2023-01-18T13:46:31.340Z,2.71
2023-01-18T13:49:36.157Z,2.78
2023-01-18T13:52:33.479Z,2.75
2023-01-18T13:55:07.267Z,2.74
2023-01-18T13:57:37.008Z,2.66
2023-01-18T14:00:04.681Z,2.62
2023-01-18T14:02:42.540Z,2.58
2023-01-18T14:05:25.254Z,2.75
2023-01-18T14:07:58.210Z,2.63
2023-01-18T14:10:34.039Z,2.65
2023-01-18T14:13:03.950Z,2.73
2023-01-18T14:15:40.781Z,2.57
2023-01-18T14:18:22.640Z,2.64
2023-01-18T14:21:08.030Z,2.60
2023-01-18T14:24:14.472Z,2.72
2023-01-18T14:26:42.642Z,2.59
2023-01-18T14:29:47.260Z,2.66
2023-01-18T14:32:27.370Z,2.55
2023-01-18T14:35:15.977Z,2.60
2023-01-18T14:37:44.104Z,2.63
2023-01-18T14:40:15.375Z,2.65
2023-01-18T14:42:55.996Z,2.61
2023-01-18T14:45:27.122Z,2.68
2023-01-18T14:47:55.253Z,2.65
2023-01-18T14:50:23.254Z,2.71
2023-01-18T14:52:50.980Z,2.68
2023-01-18T14:55:35.733Z,2.71
2023-01-18T14:58:14.744Z,2.75
2023-01-18T15:00:59.502Z,2.84
2023-01-18T15:03:30.652Z,2.72
2023-01-18T15:06:17.731Z,2.66
2023-01-18T15:08:45.525Z,2.66
2023-01-18T15:11:15.139Z,2.63
2023-01-18T15:13:52.668Z,2.71
2023-01-18T15:16:24.851Z,2.71
2023-01-18T15:18:56.859Z,2.77
2023-01-18T15:21:25.837Z,2.77
2023-01-18T15:23:57.346Z,2.76
2023-01-18T15:27:02.811Z,2.61
2023-01-18T15:29:41.352Z,2.73
2023-01-18T15:32:20.595Z,2.61
2023-01-18T15:34:48.716Z,2.48
2023-01-18T15:37:26.927Z,2.63
2023-01-18T15:40:07.531Z,2.66
2023-01-18T15:42:44.020Z,2.65
2023-01-18T15:45:19.888Z,2.67
2023-01-18T15:47:55.025Z,2.51
2023-01-18T15:50:24.537Z,2.60
2023-01-18T15:53:13.345Z,2.56
2023-01-18T15:55:55.234Z,2.56
2023-01-18T15:58:35.938Z,2.69
2023-01-18T16:01:08.846Z,2.64
2023-01-18T16:03:53.389Z,2.63
2023-01-18T16:06:22.834Z,2.67
2023-01-18T16:09:13.805Z,2.62
2023-01-18T16:12:00.314Z,2.61
2023-01-18T16:14:27.725Z,2.77
2023-01-18T16:17:16.469Z,2.82
2023-01-18T16:19:44.712Z,2.71
2023-01-18T16:22:33.634Z,2.70
2023-01-18T16:25:11.608Z,2.61
2023-01-18T16:27:54.984Z,2.62
2023-01-18T16:30:27.540Z,2.67
2023-01-18T16:32:54.196Z,2.71
2023-01-18T16:35:22.896Z,2.68
2023-01-18T16:37:50.562Z,2.75
2023-01-18T16:40:29.772Z,2.74
2023-01-18T16:43:08.704Z,2.60
2023-01-18T16:45:53.202Z,2.71
2023-01-18T16:48:23.319Z,2.65
2023-01-18T16:50:50.517Z,2.71
2023-01-18T16:53:17.560Z,2.67
2023-01-18T16:55:45.008Z,2.71
2023-01-18T16:58:30.800Z,2.68
2023-01-18T17:01:26.198Z,2.61
2023-01-18T17:03:57.480Z,2.50
2023-01-18T17:06:24.073Z,2.55
2023-01-18T17:08:59.312Z,2.64
2023-01-18T17:11:26.927Z,2.55
2023-01-18T17:13:53.479Z,2.58
2023-01-18T17:16:20.099Z,2.62
2023-01-18T17:18:48.098Z,2.70
2023-01-18T17:21:14.816Z,2.63
2023-01-18T17:23:43.965Z,2.67
2023-01-18T17:26:14.731Z,2.60
2023-01-18T17:28:41.325Z,2.65
2023-01-18T17:31:08.639Z,2.59
2023-01-18T17:33:39.132Z,2.62
2023-01-18T17:36:09.883Z,2.72
2023-01-18T17:38:37.035Z,2.72
2023-01-18T17:41:13.462Z,2.73
2023-01-18T17:44:00.915Z,2.66
2023-01-18T17:46:27.674Z,2.58
2023-01-18T17:48:54.357Z,2.54
2023-01-18T17:51:26.196Z,2.64
2023-01-18T17:54:10.202Z,2.63
2023-01-18T17:56:55.634Z,2.77
2023-01-18T17:59:24.705Z,2.59
2023-01-18T18:01:53.024Z,2.67
2023-01-18T18:04:25.753Z,2.60
2023-01-18T18:06:58.571Z,2.71
2023-01-18T18:09:25.390Z,2.76
2023-01-18T18:11:53.385Z,2.67
2023-01-18T18:14:29.116Z,2.72
2023-01-18T18:16:56.293Z,2.78
2023-01-18T18:19:22.967Z,2.68
2023-01-18T18:21:51.765Z,2.60
2023-01-18T18:24:18.855Z,2.51
2023-01-18T18:26:45.382Z,2.62
2023-01-18T18:29:12.068Z,2.65
2023-01-18T18:31:39.397Z,2.53
2023-01-18T18:34:08.675Z,2.57
2023-01-18T18:36:35.268Z,2.55
2023-01-18T18:39:05.450Z,2.58
2023-01-18T18:41:32.501Z,2.58
2023-01-18T18:43:59.203Z,2.56
2023-01-18T18:46:28.921Z,2.53
2023-01-18T18:48:56.316Z,2.62
2023-01-18T18:51:25.969Z,2.58
2023-01-18T18:53:52.505Z,2.57
2023-01-18T18:56:19.171Z,2.52
2023-01-18T18:58:48.168Z,2.47
2023-01-18T19:01:23.389Z,2.45
2023-01-18T19:03:53.290Z,2.45
2023-01-18T19:06:29.168Z,2.43
2023-01-18T19:08:58.805Z,2.37
2023-01-18T19:11:26.911Z,2.42
2023-01-18T19:13:56.089Z,2.27
2023-01-18T19:16:23.036Z,2.36
2023-01-18T19:18:49.739Z,2.33
2023-01-18T19:21:16.388Z,2.31
2023-01-18T19:23:44.758Z,2.20
2023-01-18T19:26:11.777Z,2.27
2023-01-18T19:28:40.284Z,2.08
2023-01-18T19:31:08.346Z,2.18
2023-01-18T19:33:36.929Z,2.19
2023-01-18T19:36:12.244Z,2.27
2023-01-18T19:38:48.146Z,2.28
2023-01-18T19:41:25.628Z,2.15
2023-01-18T19:43:53.876Z,2.17
2023-01-18T19:46:22.806Z,2.15
2023-01-18T19:48:59.619Z,1.94
2023-01-18T19:51:27.937Z,2.02
2023-01-18T19:53:59.395Z,1.89
2023-01-18T19:56:28.047Z,1.95
2023-01-18T19:59:01.618Z,1.92
2023-01-18T20:01:36.470Z,1.91
2023-01-18T20:04:07.279Z,1.80
2023-01-18T20:06:34.876Z,1.93
2023-01-18T20:09:01.896Z,1.89
2023-01-18T20:11:29.303Z,1.94
2023-01-18T20:13:57.053Z,1.92
2023-01-18T20:16:24.601Z,1.89
2023-01-18T20:18:52.732Z,1.88
2023-01-18T20:21:19.564Z,1.86
2023-01-18T20:23:46.142Z,1.83
2023-01-18T20:26:20.041Z,1.89
2023-01-18T20:28:55.814Z,1.78
2023-01-18T20:31:25.844Z,1.81
2023-01-18T20:33:59.955Z,1.71
2023-01-18T20:36:27.952Z,1.75
2023-01-18T20:38:54.480Z,1.79
2023-01-18T20:41:21.308Z,1.59
2023-01-18T20:43:48.129Z,1.57
2023-01-18T20:46:14.680Z,1.64
2023-01-18T20:48:41.647Z,1.61
2023-01-18T20:51:13.826Z,1.45
2023-01-18T20:53:40.447Z,1.49
2023-01-18T20:56:20.009Z,1.81
2023-01-18T20:58:54.467Z,1.80
2023-01-18T21:01:21.097Z,1.75
2023-01-18T21:03:54.047Z,1.64
2023-01-18T21:06:20.835Z,1.62
2023-01-18T21:08:47.395Z,1.55
2023-01-18T21:11:14.999Z,1.56
2023-01-18T21:13:41.609Z,1.55
2023-01-18T21:16:08.904Z,1.52
2023-01-18T21:18:37.559Z,1.65
2023-01-18T21:21:04.567Z,1.49
2023-01-18T21:23:31.271Z,1.50
2023-01-18T21:25:58.955Z,1.60
2023-01-18T21:28:28.637Z,1.57
2023-01-18T21:30:56.342Z,1.56
2023-01-18T21:33:23.647Z,1.55
2023-01-18T21:35:55.630Z,1.56
2023-01-18T21:38:24.474Z,1.48
2023-01-18T21:41:19.003Z,1.51
2023-01-18T21:44:04.821Z,1.50
2023-01-18T21:46:35.207Z,1.51
2023-01-18T21:49:03.830Z,1.48
2023-01-18T21:51:52.562Z,1.40
2023-01-18T21:54:22.342Z,1.40
2023-01-18T21:56:57.023Z,1.50
2023-01-18T21:59:23.554Z,1.53
2023-01-18T22:01:50.805Z,1.58
2023-01-18T22:04:38.151Z,1.61
2023-01-18T22:07:04.670Z,1.66
2023-01-18T22:09:31.477Z,1.78
2023-01-18T22:11:58.564Z,1.78
2023-01-18T22:14:26.028Z,1.58
2023-01-18T22:16:53.096Z,1.59
2023-01-18T22:19:19.843Z,1.61
2023-01-18T22:21:49.653Z,1.64
2023-01-18T22:24:17.853Z,1.47
2023-01-18T22:26:45.209Z,1.43
2023-01-18T22:29:12.418Z,1.65
2023-01-18T22:31:39.305Z,1.46
2023-01-18T22:34:14.365Z,1.61
2023-01-18T22:36:40.882Z,1.46
2023-01-18T22:39:08.618Z,1.39
2023-01-18T22:41:36.946Z,1.34
2023-01-18T22:44:03.483Z,1.33
2023-01-18T22:46:30.020Z,1.63
2023-01-18T22:48:59.067Z,1.56
2023-01-18T22:51:26.026Z,1.37
2023-01-18T22:53:52.701Z,1.30
2023-01-18T22:56:24.141Z,1.24
2023-01-18T22:58:51.135Z,1.43
2023-01-18T23:01:27.989Z,1.41
2023-01-18T23:04:02.609Z,1.42
2023-01-18T23:06:57.595Z,1.41
2023-01-18T23:09:27.696Z,1.15
2023-01-18T23:11:54.256Z,1.31
2023-01-18T23:14:39.501Z,1.36
2023-01-18T23:17:24.895Z,1.48
2023-01-18T23:19:53.531Z,1.37
2023-01-18T23:22:20.104Z,1.26
2023-01-18T23:24:46.703Z,1.17
2023-01-18T23:27:14.945Z,1.15
2023-01-18T23:29:41.588Z,1.32
2023-01-18T23:32:08.646Z,1.23
2023-01-18T23:34:35.641Z,1.21
2023-01-18T23:37:02.806Z,1.22
2023-01-18T23:39:47.872Z,1.11
2023-01-18T23:42:36.018Z,1.24
2023-01-18T23:48:31.619Z,1.09
2023-01-18T23:51:17.000Z,1.22
2023-01-18T23:54:02.277Z,1.11
2023-01-18T23:56:30.423Z,0.98
2023-01-18T23:58:57.235Z,1.09
